Pagrindinis puslapis
METAR-TAF:

METAR-TAF

Oro uostai :

Tajima, Japonija

platuma: 35-31N, ilguma: 134-48E, Aukštis: 210 m

Dabartinis oras

Ataskaita buvo paskelbta 19 minutes, ne 08:00 UTC
Vėjas 3 kt iš Šiaurės/Šiaurės Rytų, svyruoja nuo Šiaurės/Šiaurės Vakarų ir Šiaurės Rytų
Temperatūra 13°C
Drėgmė 47%
Slėgis 1022 hPa
Matomumas 10 km arba daugiau
Mažai debesys ne aukštis 2000 ft
Su prošvaistėmis

METAR: RJBT 240800Z 02003KT 340V050 9999 FEW020 BKN/// 13/02 Q1022

Laikas: 17:19 (08:19 UTC)


TAF: trūkstamas

Orai ataskaitas ir orų prognozės (METAR, TAF).

turimą stotys yra geltonos ir raudonos taškus žemėlapyje.

Perkelti pele per norėdami pamatyti stoties vardą.

Tada spustelėkite, norėdami matyti oro stebėjimo ir prognozės.

Norėdami pakeisti žemėlapį: spustelėkite ant žalios mygtukų su juodo kryžiaus žemyn,; žalią mygtuką su brūkšneliu, jei norite nutolinti; arba žalių rodyklių gretimoms žemėlapius.


METAR-TAF: